sensor_id;sensor_type;location;lat;lon;timestamp;P1;durP1;ratioP1;P2;durP2;ratioP2
50126;SDS011;36024;47.974;16.398;2024-03-17T00:02:09;0.70;;;0.70;;
50126;SDS011;36024;47.974;16.398;2024-03-17T00:04:35;0.67;;;0.60;;
50126;SDS011;36024;47.974;16.398;2024-03-17T00:07:02;0.67;;;0.60;;
50126;SDS011;36024;47.974;16.398;2024-03-17T00:09:28;0.47;;;0.47;;
50126;SDS011;36024;47.974;16.398;2024-03-17T00:11:55;0.80;;;0.80;;
50126;SDS011;36024;47.974;16.398;2024-03-17T00:14:21;0.60;;;0.60;;
50126;SDS011;36024;47.974;16.398;2024-03-17T00:16:47;0.97;;;0.70;;
50126;SDS011;36024;47.974;16.398;2024-03-17T00:19:14;0.77;;;0.70;;
50126;SDS011;36024;47.974;16.398;2024-03-17T00:21:40;0.67;;;0.67;;
50126;SDS011;36024;47.974;16.398;2024-03-17T00:24:09;0.80;;;0.77;;
50126;SDS011;36024;47.974;16.398;2024-03-17T00:26:35;1.73;;;0.80;;
50126;SDS011;36024;47.974;16.398;2024-03-17T00:29:01;0.77;;;0.77;;
50126;SDS011;36024;47.974;16.398;2024-03-17T00:31:29;0.73;;;0.73;;
50126;SDS011;36024;47.974;16.398;2024-03-17T00:33:54;0.70;;;0.70;;
50126;SDS011;36024;47.974;16.398;2024-03-17T00:36:20;0.73;;;0.73;;
50126;SDS011;36024;47.974;16.398;2024-03-17T00:38:46;1.40;;;0.70;;
50126;SDS011;36024;47.974;16.398;2024-03-17T00:41:12;0.67;;;0.67;;
50126;SDS011;36024;47.974;16.398;2024-03-17T00:43:39;0.70;;;0.70;;
50126;SDS011;36024;47.974;16.398;2024-03-17T00:46:05;1.00;;;0.90;;
50126;SDS011;36024;47.974;16.398;2024-03-17T00:48:31;0.80;;;0.80;;
50126;SDS011;36024;47.974;16.398;2024-03-17T00:50:57;1.17;;;0.70;;
50126;SDS011;36024;47.974;16.398;2024-03-17T00:53:27;1.87;;;0.97;;
50126;SDS011;36024;47.974;16.398;2024-03-17T00:55:54;1.23;;;1.10;;
50126;SDS011;36024;47.974;16.398;2024-03-17T00:58:23;0.80;;;0.80;;
50126;SDS011;36024;47.974;16.398;2024-03-17T01:00:49;1.07;;;1.07;;
50126;SDS011;36024;47.974;16.398;2024-03-17T01:03:15;1.17;;;1.07;;
50126;SDS011;36024;47.974;16.398;2024-03-17T01:05:41;1.43;;;0.90;;
50126;SDS011;36024;47.974;16.398;2024-03-17T01:08:11;0.90;;;0.87;;
50126;SDS011;36024;47.974;16.398;2024-03-17T01:10:37;0.77;;;0.77;;
50126;SDS011;36024;47.974;16.398;2024-03-17T01:13:05;0.90;;;0.90;;
50126;SDS011;36024;47.974;16.398;2024-03-17T01:15:32;0.87;;;0.87;;
50126;SDS011;36024;47.974;16.398;2024-03-17T01:17:59;0.73;;;0.73;;
50126;SDS011;36024;47.974;16.398;2024-03-17T01:20:25;1.07;;;0.80;;
50126;SDS011;36024;47.974;16.398;2024-03-17T01:22:54;0.93;;;0.93;;
50126;SDS011;36024;47.974;16.398;2024-03-17T01:25:24;0.87;;;0.87;;
50126;SDS011;36024;47.974;16.398;2024-03-17T01:27:55;1.33;;;1.23;;
50126;SDS011;36024;47.974;16.398;2024-03-17T01:30:22;1.40;;;1.30;;
50126;SDS011;36024;47.974;16.398;2024-03-17T01:32:48;1.40;;;1.30;;
50126;SDS011;36024;47.974;16.398;2024-03-17T01:35:17;1.30;;;1.20;;
50126;SDS011;36024;47.974;16.398;2024-03-17T01:37:43;1.37;;;1.27;;
50126;SDS011;36024;47.974;16.398;2024-03-17T01:40:11;1.30;;;1.27;;
50126;SDS011;36024;47.974;16.398;2024-03-17T01:42:40;1.40;;;1.30;;
50126;SDS011;36024;47.974;16.398;2024-03-17T01:47:42;1.70;;;1.60;;
50126;SDS011;36024;47.974;16.398;2024-03-17T01:50:08;1.97;;;1.60;;
50126;SDS011;36024;47.974;16.398;2024-03-17T01:52:35;1.63;;;1.53;;
50126;SDS011;36024;47.974;16.398;2024-03-17T01:55:02;1.80;;;1.60;;
50126;SDS011;36024;47.974;16.398;2024-03-17T01:57:29;1.97;;;1.87;;
50126;SDS011;36024;47.974;16.398;2024-03-17T01:59:55;1.90;;;1.80;;
50126;SDS011;36024;47.974;16.398;2024-03-17T02:02:22;1.67;;;1.57;;
50126;SDS011;36024;47.974;16.398;2024-03-17T02:04:48;2.40;;;2.20;;
50126;SDS011;36024;47.974;16.398;2024-03-17T02:07:14;1.87;;;1.77;;
50126;SDS011;36024;47.974;16.398;2024-03-17T02:09:41;2.30;;;2.10;;
50126;SDS011;36024;47.974;16.398;2024-03-17T02:12:08;2.80;;;2.60;;
50126;SDS011;36024;47.974;16.398;2024-03-17T02:14:35;2.60;;;2.40;;
50126;SDS011;36024;47.974;16.398;2024-03-17T02:17:03;2.67;;;2.33;;
50126;SDS011;36024;47.974;16.398;2024-03-17T02:19:30;2.60;;;2.40;;
50126;SDS011;36024;47.974;16.398;2024-03-17T02:21:56;2.40;;;2.20;;
50126;SDS011;36024;47.974;16.398;2024-03-17T02:24:22;2.40;;;2.23;;
50126;SDS011;36024;47.974;16.398;2024-03-17T02:26:48;2.83;;;2.63;;
50126;SDS011;36024;47.974;16.398;2024-03-17T02:29:14;2.93;;;2.63;;
50126;SDS011;36024;47.974;16.398;2024-03-17T02:31:40;3.40;;;2.80;;
50126;SDS011;36024;47.974;16.398;2024-03-17T02:34:06;2.90;;;2.70;;
50126;SDS011;36024;47.974;16.398;2024-03-17T02:36:32;2.63;;;2.43;;
50126;SDS011;36024;47.974;16.398;2024-03-17T02:38:58;3.87;;;3.10;;
50126;SDS011;36024;47.974;16.398;2024-03-17T02:41:43;3.17;;;2.93;;
50126;SDS011;36024;47.974;16.398;2024-03-17T02:44:09;2.80;;;2.60;;
50126;SDS011;36024;47.974;16.398;2024-03-17T02:46:36;3.10;;;2.90;;
50126;SDS011;36024;47.974;16.398;2024-03-17T02:49:03;3.10;;;2.80;;
50126;SDS011;36024;47.974;16.398;2024-03-17T02:51:30;2.90;;;2.70;;
50126;SDS011;36024;47.974;16.398;2024-03-17T02:53:56;2.87;;;2.67;;
50126;SDS011;36024;47.974;16.398;2024-03-17T02:56:25;3.47;;;3.17;;
50126;SDS011;36024;47.974;16.398;2024-03-17T02:58:51;3.20;;;3.00;;
50126;SDS011;36024;47.974;16.398;2024-03-17T03:01:17;3.40;;;3.03;;
50126;SDS011;36024;47.974;16.398;2024-03-17T03:03:45;3.50;;;3.20;;
50126;SDS011;36024;47.974;16.398;2024-03-17T03:06:15;3.60;;;3.30;;
50126;SDS011;36024;47.974;16.398;2024-03-17T03:08:43;4.30;;;3.57;;
50126;SDS011;36024;47.974;16.398;2024-03-17T03:11:10;4.43;;;3.50;;
50126;SDS011;36024;47.974;16.398;2024-03-17T03:13:38;6.07;;;3.53;;
50126;SDS011;36024;47.974;16.398;2024-03-17T03:16:06;4.40;;;3.90;;
50126;SDS011;36024;47.974;16.398;2024-03-17T03:18:34;3.87;;;3.50;;
50126;SDS011;36024;47.974;16.398;2024-03-17T03:20:59;4.63;;;3.73;;
50126;SDS011;36024;47.974;16.398;2024-03-17T03:23:26;3.67;;;3.37;;
50126;SDS011;36024;47.974;16.398;2024-03-17T03:25:56;3.93;;;3.40;;
50126;SDS011;36024;47.974;16.398;2024-03-17T03:28:23;4.20;;;3.73;;
50126;SDS011;36024;47.974;16.398;2024-03-17T03:30:48;5.43;;;3.70;;
50126;SDS011;36024;47.974;16.398;2024-03-17T03:33:14;6.63;;;3.50;;
50126;SDS011;36024;47.974;16.398;2024-03-17T03:35:40;5.97;;;3.80;;
50126;SDS011;36024;47.974;16.398;2024-03-17T03:38:07;4.83;;;3.37;;
50126;SDS011;36024;47.974;16.398;2024-03-17T03:40:34;4.03;;;3.63;;
50126;SDS011;36024;47.974;16.398;2024-03-17T03:43:00;4.33;;;3.33;;
50126;SDS011;36024;47.974;16.398;2024-03-17T03:45:25;5.27;;;3.70;;
50126;SDS011;36024;47.974;16.398;2024-03-17T03:47:52;3.83;;;3.33;;
50126;SDS011;36024;47.974;16.398;2024-03-17T03:50:20;3.97;;;3.43;;
50126;SDS011;36024;47.974;16.398;2024-03-17T03:52:46;4.10;;;3.70;;
50126;SDS011;36024;47.974;16.398;2024-03-17T03:55:13;4.10;;;3.37;;
50126;SDS011;36024;47.974;16.398;2024-03-17T03:57:42;6.13;;;3.67;;
50126;SDS011;36024;47.974;16.398;2024-03-17T04:00:14;3.80;;;3.37;;
50126;SDS011;36024;47.974;16.398;2024-03-17T04:02:40;4.80;;;3.63;;
50126;SDS011;36024;47.974;16.398;2024-03-17T04:05:07;4.53;;;3.73;;
50126;SDS011;36024;47.974;16.398;2024-03-17T04:07:33;5.07;;;3.47;;
50126;SDS011;36024;47.974;16.398;2024-03-17T04:10:00;5.57;;;4.13;;
50126;SDS011;36024;47.974;16.398;2024-03-17T04:12:27;4.20;;;3.80;;
50126;SDS011;36024;47.974;16.398;2024-03-17T04:14:53;7.67;;;4.77;;
50126;SDS011;36024;47.974;16.398;2024-03-17T04:17:21;6.63;;;4.90;;
50126;SDS011;36024;47.974;16.398;2024-03-17T04:19:50;6.93;;;5.80;;
50126;SDS011;36024;47.974;16.398;2024-03-17T04:22:16;5.77;;;4.67;;
50126;SDS011;36024;47.974;16.398;2024-03-17T04:24:43;4.87;;;4.20;;
50126;SDS011;36024;47.974;16.398;2024-03-17T04:27:09;4.40;;;4.00;;
50126;SDS011;36024;47.974;16.398;2024-03-17T04:29:35;4.80;;;4.20;;
50126;SDS011;36024;47.974;16.398;2024-03-17T04:32:00;6.07;;;4.83;;
50126;SDS011;36024;47.974;16.398;2024-03-17T04:34:29;4.57;;;4.17;;
50126;SDS011;36024;47.974;16.398;2024-03-17T04:36:56;4.87;;;4.37;;
50126;SDS011;36024;47.974;16.398;2024-03-17T04:39:22;5.67;;;4.37;;
50126;SDS011;36024;47.974;16.398;2024-03-17T04:41:47;4.77;;;4.10;;
50126;SDS011;36024;47.974;16.398;2024-03-17T04:44:13;3.90;;;3.53;;
50126;SDS011;36024;47.974;16.398;2024-03-17T04:46:39;4.80;;;4.23;;
50126;SDS011;36024;47.974;16.398;2024-03-17T04:49:05;4.67;;;3.93;;
50126;SDS011;36024;47.974;16.398;2024-03-17T04:51:34;4.37;;;3.97;;
50126;SDS011;36024;47.974;16.398;2024-03-17T04:54:01;5.60;;;4.40;;
50126;SDS011;36024;47.974;16.398;2024-03-17T04:56:29;4.70;;;4.20;;
50126;SDS011;36024;47.974;16.398;2024-03-17T04:58:56;6.23;;;4.67;;
50126;SDS011;36024;47.974;16.398;2024-03-17T05:01:22;4.53;;;4.10;;
50126;SDS011;36024;47.974;16.398;2024-03-17T05:03:50;5.00;;;4.40;;
50126;SDS011;36024;47.974;16.398;2024-03-17T05:06:17;5.97;;;4.43;;
50126;SDS011;36024;47.974;16.398;2024-03-17T05:08:43;4.40;;;4.00;;
50126;SDS011;36024;47.974;16.398;2024-03-17T05:11:09;5.40;;;3.53;;
50126;SDS011;36024;47.974;16.398;2024-03-17T05:13:36;3.80;;;3.40;;
50126;SDS011;36024;47.974;16.398;2024-03-17T05:16:04;3.97;;;3.33;;
50126;SDS011;36024;47.974;16.398;2024-03-17T05:18:30;3.80;;;3.13;;
50126;SDS011;36024;47.974;16.398;2024-03-17T05:21:02;4.27;;;3.87;;
50126;SDS011;36024;47.974;16.398;2024-03-17T05:23:29;4.00;;;3.60;;
50126;SDS011;36024;47.974;16.398;2024-03-17T05:25:56;5.90;;;3.60;;
50126;SDS011;36024;47.974;16.398;2024-03-17T05:28:22;4.07;;;3.67;;
50126;SDS011;36024;47.974;16.398;2024-03-17T05:30:49;5.50;;;4.10;;
50126;SDS011;36024;47.974;16.398;2024-03-17T05:33:19;4.40;;;3.90;;
50126;SDS011;36024;47.974;16.398;2024-03-17T05:35:50;6.90;;;4.30;;
50126;SDS011;36024;47.974;16.398;2024-03-17T05:38:20;4.30;;;3.90;;
50126;SDS011;36024;47.974;16.398;2024-03-17T05:40:59;4.23;;;3.30;;
50126;SDS011;36024;47.974;16.398;2024-03-17T05:43:26;4.90;;;3.90;;
50126;SDS011;36024;47.974;16.398;2024-03-17T05:45:59;4.10;;;3.70;;
50126;SDS011;36024;47.974;16.398;2024-03-17T05:48:27;5.33;;;3.73;;
50126;SDS011;36024;47.974;16.398;2024-03-17T05:50:53;4.43;;;3.73;;
50126;SDS011;36024;47.974;16.398;2024-03-17T05:53:19;5.60;;;3.77;;
50126;SDS011;36024;47.974;16.398;2024-03-17T05:55:46;3.90;;;3.50;;
50126;SDS011;36024;47.974;16.398;2024-03-17T05:58:12;5.50;;;3.70;;
50126;SDS011;36024;47.974;16.398;2024-03-17T06:00:39;5.00;;;3.67;;
50126;SDS011;36024;47.974;16.398;2024-03-17T06:03:05;5.40;;;3.43;;
50126;SDS011;36024;47.974;16.398;2024-03-17T06:05:31;4.07;;;3.60;;
50126;SDS011;36024;47.974;16.398;2024-03-17T06:07:58;5.20;;;3.80;;
50126;SDS011;36024;47.974;16.398;2024-03-17T06:10:25;3.47;;;3.17;;
50126;SDS011;36024;47.974;16.398;2024-03-17T06:12:52;4.37;;;3.27;;
50126;SDS011;36024;47.974;16.398;2024-03-17T06:15:18;5.87;;;3.60;;
50126;SDS011;36024;47.974;16.398;2024-03-17T06:17:46;5.03;;;3.70;;
50126;SDS011;36024;47.974;16.398;2024-03-17T06:20:12;3.77;;;3.30;;
50126;SDS011;36024;47.974;16.398;2024-03-17T06:22:39;5.13;;;3.40;;
50126;SDS011;36024;47.974;16.398;2024-03-17T06:25:06;4.97;;;3.67;;
50126;SDS011;36024;47.974;16.398;2024-03-17T06:27:32;6.57;;;3.70;;
50126;SDS011;36024;47.974;16.398;2024-03-17T06:30:02;5.03;;;3.30;;
50126;SDS011;36024;47.974;16.398;2024-03-17T06:32:32;4.13;;;3.10;;
50126;SDS011;36024;47.974;16.398;2024-03-17T06:34:59;5.17;;;3.20;;
50126;SDS011;36024;47.974;16.398;2024-03-17T06:37:27;4.10;;;2.90;;
50126;SDS011;36024;47.974;16.398;2024-03-17T06:39:53;4.17;;;2.80;;
50126;SDS011;36024;47.974;16.398;2024-03-17T06:42:19;5.10;;;3.23;;
50126;SDS011;36024;47.974;16.398;2024-03-17T06:44:45;3.93;;;2.93;;
50126;SDS011;36024;47.974;16.398;2024-03-17T06:47:11;3.53;;;2.70;;
50126;SDS011;36024;47.974;16.398;2024-03-17T06:49:37;5.30;;;3.00;;
50126;SDS011;36024;47.974;16.398;2024-03-17T06:52:03;3.73;;;2.63;;
50126;SDS011;36024;47.974;16.398;2024-03-17T06:54:30;4.00;;;2.70;;
50126;SDS011;36024;47.974;16.398;2024-03-17T06:56:57;3.73;;;2.60;;
50126;SDS011;36024;47.974;16.398;2024-03-17T06:59:23;4.37;;;2.67;;
50126;SDS011;36024;47.974;16.398;2024-03-17T07:01:49;3.00;;;2.60;;
50126;SDS011;36024;47.974;16.398;2024-03-17T07:04:16;3.73;;;2.70;;
50126;SDS011;36024;47.974;16.398;2024-03-17T07:06:42;4.47;;;2.60;;
50126;SDS011;36024;47.974;16.398;2024-03-17T07:09:08;5.13;;;3.70;;
50126;SDS011;36024;47.974;16.398;2024-03-17T07:11:34;4.10;;;2.57;;
50126;SDS011;36024;47.974;16.398;2024-03-17T07:14:00;3.27;;;2.67;;
50126;SDS011;36024;47.974;16.398;2024-03-17T07:16:26;4.73;;;2.70;;
50126;SDS011;36024;47.974;16.398;2024-03-17T07:18:52;3.47;;;2.27;;
50126;SDS011;36024;47.974;16.398;2024-03-17T07:21:22;2.93;;;2.63;;
50126;SDS011;36024;47.974;16.398;2024-03-17T07:23:47;3.53;;;2.73;;
50126;SDS011;36024;47.974;16.398;2024-03-17T07:26:14;4.57;;;2.50;;
50126;SDS011;36024;47.974;16.398;2024-03-17T07:28:40;3.53;;;2.63;;
50126;SDS011;36024;47.974;16.398;2024-03-17T07:31:08;3.17;;;2.63;;
50126;SDS011;36024;47.974;16.398;2024-03-17T07:33:34;5.93;;;2.50;;
50126;SDS011;36024;47.974;16.398;2024-03-17T07:36:00;3.20;;;2.30;;
50126;SDS011;36024;47.974;16.398;2024-03-17T07:38:27;4.37;;;2.30;;
50126;SDS011;36024;47.974;16.398;2024-03-17T07:43:23;3.33;;;2.23;;
50126;SDS011;36024;47.974;16.398;2024-03-17T07:45:58;3.50;;;2.40;;
50126;SDS011;36024;47.974;16.398;2024-03-17T07:48:25;3.10;;;2.20;;
50126;SDS011;36024;47.974;16.398;2024-03-17T07:50:54;4.10;;;2.57;;
50126;SDS011;36024;47.974;16.398;2024-03-17T07:53:20;3.80;;;2.27;;
50126;SDS011;36024;47.974;16.398;2024-03-17T07:55:46;3.57;;;2.43;;
50126;SDS011;36024;47.974;16.398;2024-03-17T07:58:12;2.40;;;2.00;;
50126;SDS011;36024;47.974;16.398;2024-03-17T08:00:38;2.93;;;2.30;;
50126;SDS011;36024;47.974;16.398;2024-03-17T08:03:04;3.47;;;2.43;;
50126;SDS011;36024;47.974;16.398;2024-03-17T08:05:30;4.33;;;2.47;;
50126;SDS011;36024;47.974;16.398;2024-03-17T08:07:56;4.00;;;2.50;;
50126;SDS011;36024;47.974;16.398;2024-03-17T08:10:22;2.90;;;2.10;;
50126;SDS011;36024;47.974;16.398;2024-03-17T08:12:48;2.97;;;2.10;;
50126;SDS011;36024;47.974;16.398;2024-03-17T08:15:14;3.67;;;2.13;;
50126;SDS011;36024;47.974;16.398;2024-03-17T08:17:40;3.47;;;2.00;;
50126;SDS011;36024;47.974;16.398;2024-03-17T08:20:06;2.73;;;2.10;;
50126;SDS011;36024;47.974;16.398;2024-03-17T08:22:32;2.80;;;2.03;;
50126;SDS011;36024;47.974;16.398;2024-03-17T08:24:58;2.23;;;2.00;;
50126;SDS011;36024;47.974;16.398;2024-03-17T08:27:24;3.63;;;2.13;;
50126;SDS011;36024;47.974;16.398;2024-03-17T08:29:50;3.00;;;2.00;;
50126;SDS011;36024;47.974;16.398;2024-03-17T08:32:16;3.20;;;2.00;;
50126;SDS011;36024;47.974;16.398;2024-03-17T08:34:45;3.07;;;2.00;;
50126;SDS011;36024;47.974;16.398;2024-03-17T08:37:12;3.07;;;1.97;;
50126;SDS011;36024;47.974;16.398;2024-03-17T08:39:37;2.60;;;1.97;;
50126;SDS011;36024;47.974;16.398;2024-03-17T08:42:03;2.27;;;1.73;;
50126;SDS011;36024;47.974;16.398;2024-03-17T08:44:29;2.60;;;1.73;;
50126;SDS011;36024;47.974;16.398;2024-03-17T08:46:55;2.97;;;1.80;;
50126;SDS011;36024;47.974;16.398;2024-03-17T08:49:22;2.60;;;1.87;;
50126;SDS011;36024;47.974;16.398;2024-03-17T08:51:48;3.70;;;1.90;;
50126;SDS011;36024;47.974;16.398;2024-03-17T08:54:14;2.03;;;1.80;;
50126;SDS011;36024;47.974;16.398;2024-03-17T08:56:41;2.33;;;2.03;;
50126;SDS011;36024;47.974;16.398;2024-03-17T08:59:07;3.47;;;1.87;;
50126;SDS011;36024;47.974;16.398;2024-03-17T09:01:33;4.43;;;3.03;;
50126;SDS011;36024;47.974;16.398;2024-03-17T09:03:59;5.67;;;3.63;;
50126;SDS011;36024;47.974;16.398;2024-03-17T09:06:27;3.67;;;2.23;;
50126;SDS011;36024;47.974;16.398;2024-03-17T09:08:55;4.37;;;2.50;;
50126;SDS011;36024;47.974;16.398;2024-03-17T09:11:21;3.30;;;2.37;;
50126;SDS011;36024;47.974;16.398;2024-03-17T09:13:51;5.33;;;4.83;;
50126;SDS011;36024;47.974;16.398;2024-03-17T09:16:17;4.77;;;3.10;;
50126;SDS011;36024;47.974;16.398;2024-03-17T09:18:44;2.30;;;1.93;;
50126;SDS011;36024;47.974;16.398;2024-03-17T09:21:09;3.03;;;2.17;;
50126;SDS011;36024;47.974;16.398;2024-03-17T09:23:39;2.40;;;2.20;;
50126;SDS011;36024;47.974;16.398;2024-03-17T09:26:06;2.90;;;1.87;;
50126;SDS011;36024;47.974;16.398;2024-03-17T09:28:34;2.80;;;2.00;;
50126;SDS011;36024;47.974;16.398;2024-03-17T09:31:00;2.53;;;2.10;;
50126;SDS011;36024;47.974;16.398;2024-03-17T09:33:27;4.43;;;2.30;;
50126;SDS011;36024;47.974;16.398;2024-03-17T09:38:20;4.27;;;2.20;;
50126;SDS011;36024;47.974;16.398;2024-03-17T09:40:47;3.20;;;2.30;;
50126;SDS011;36024;47.974;16.398;2024-03-17T09:43:15;2.73;;;2.20;;
50126;SDS011;36024;47.974;16.398;2024-03-17T09:45:41;2.43;;;2.10;;
50126;SDS011;36024;47.974;16.398;2024-03-17T09:48:07;3.57;;;2.00;;
50126;SDS011;36024;47.974;16.398;2024-03-17T09:50:36;4.37;;;2.53;;
50126;SDS011;36024;47.974;16.398;2024-03-17T09:53:02;2.73;;;2.03;;
50126;SDS011;36024;47.974;16.398;2024-03-17T09:55:28;2.60;;;2.00;;
50126;SDS011;36024;47.974;16.398;2024-03-17T09:57:55;3.30;;;2.20;;
50126;SDS011;36024;47.974;16.398;2024-03-17T10:00:21;3.00;;;2.20;;
50126;SDS011;36024;47.974;16.398;2024-03-17T10:02:47;2.43;;;1.73;;
50126;SDS011;36024;47.974;16.398;2024-03-17T10:05:21;2.57;;;2.30;;
50126;SDS011;36024;47.974;16.398;2024-03-17T10:07:47;3.27;;;2.00;;
50126;SDS011;36024;47.974;16.398;2024-03-17T10:10:15;2.20;;;1.90;;
50126;SDS011;36024;47.974;16.398;2024-03-17T10:12:50;2.57;;;2.07;;
50126;SDS011;36024;47.974;16.398;2024-03-17T10:15:19;3.30;;;2.10;;
50126;SDS011;36024;47.974;16.398;2024-03-17T10:17:48;3.10;;;2.00;;
50126;SDS011;36024;47.974;16.398;2024-03-17T10:20:15;2.37;;;2.07;;
50126;SDS011;36024;47.974;16.398;2024-03-17T10:25:24;2.33;;;1.97;;
50126;SDS011;36024;47.974;16.398;2024-03-17T10:27:50;2.70;;;2.00;;
50126;SDS011;36024;47.974;16.398;2024-03-17T10:30:18;3.27;;;1.93;;
50126;SDS011;36024;47.974;16.398;2024-03-17T10:33:00;2.00;;;1.80;;
50126;SDS011;36024;47.974;16.398;2024-03-17T10:35:27;2.57;;;1.90;;
50126;SDS011;36024;47.974;16.398;2024-03-17T10:37:53;2.37;;;1.80;;
50126;SDS011;36024;47.974;16.398;2024-03-17T10:40:19;2.67;;;2.03;;
50126;SDS011;36024;47.974;16.398;2024-03-17T10:42:46;2.50;;;2.00;;
50126;SDS011;36024;47.974;16.398;2024-03-17T10:45:14;2.50;;;1.90;;
50126;SDS011;36024;47.974;16.398;2024-03-17T10:47:39;2.43;;;2.00;;
50126;SDS011;36024;47.974;16.398;2024-03-17T10:50:12;2.43;;;1.87;;
50126;SDS011;36024;47.974;16.398;2024-03-17T10:52:41;2.60;;;1.93;;
50126;SDS011;36024;47.974;16.398;2024-03-17T10:55:13;2.03;;;1.80;;
50126;SDS011;36024;47.974;16.398;2024-03-17T10:57:46;2.43;;;1.80;;
50126;SDS011;36024;47.974;16.398;2024-03-17T11:00:21;3.63;;;3.33;;
50126;SDS011;36024;47.974;16.398;2024-03-17T11:02:48;10.07;;;7.50;;
50126;SDS011;36024;47.974;16.398;2024-03-17T11:07:45;20.23;;;12.83;;
50126;SDS011;36024;47.974;16.398;2024-03-17T11:10:16;2.93;;;2.67;;
50126;SDS011;36024;47.974;16.398;2024-03-17T11:12:50;2.93;;;2.03;;
50126;SDS011;36024;47.974;16.398;2024-03-17T11:17:53;2.70;;;1.80;;
50126;SDS011;36024;47.974;16.398;2024-03-17T11:20:26;2.20;;;2.00;;
50126;SDS011;36024;47.974;16.398;2024-03-17T11:22:54;1.70;;;1.60;;
50126;SDS011;36024;47.974;16.398;2024-03-17T11:27:59;2.07;;;1.60;;
50126;SDS011;36024;47.974;16.398;2024-03-17T11:38:59;2.17;;;1.77;;
50126;SDS011;36024;47.974;16.398;2024-03-17T11:41:39;2.60;;;1.90;;
50126;SDS011;36024;47.974;16.398;2024-03-17T11:44:12;2.73;;;1.63;;
50126;SDS011;36024;47.974;16.398;2024-03-17T11:46:41;2.37;;;2.17;;
50126;SDS011;36024;47.974;16.398;2024-03-17T11:49:16;3.60;;;1.70;;
50126;SDS011;36024;47.974;16.398;2024-03-17T11:51:43;2.17;;;1.97;;
50126;SDS011;36024;47.974;16.398;2024-03-17T11:54:14;1.90;;;1.50;;
50126;SDS011;36024;47.974;16.398;2024-03-17T11:56:42;2.40;;;2.20;;
50126;SDS011;36024;47.974;16.398;2024-03-17T11:59:08;2.03;;;1.83;;
50126;SDS011;36024;47.974;16.398;2024-03-17T12:01:37;2.70;;;2.00;;
50126;SDS011;36024;47.974;16.398;2024-03-17T12:04:07;2.83;;;2.00;;
50126;SDS011;36024;47.974;16.398;2024-03-17T12:06:33;2.20;;;2.00;;
50126;SDS011;36024;47.974;16.398;2024-03-17T12:09:21;2.00;;;1.80;;
50126;SDS011;36024;47.974;16.398;2024-03-17T12:11:48;2.13;;;1.80;;
50126;SDS011;36024;47.974;16.398;2024-03-17T12:14:21;1.90;;;1.80;;
50126;SDS011;36024;47.974;16.398;2024-03-17T12:19:20;1.93;;;1.60;;
50126;SDS011;36024;47.974;16.398;2024-03-17T12:21:47;1.60;;;1.50;;
50126;SDS011;36024;47.974;16.398;2024-03-17T12:26:43;2.47;;;2.00;;
50126;SDS011;36024;47.974;16.398;2024-03-17T12:29:22;3.13;;;2.83;;
50126;SDS011;36024;47.974;16.398;2024-03-17T12:31:49;2.40;;;1.93;;
50126;SDS011;36024;47.974;16.398;2024-03-17T12:34:16;5.13;;;4.63;;
50126;SDS011;36024;47.974;16.398;2024-03-17T12:36:42;2.00;;;1.70;;
50126;SDS011;36024;47.974;16.398;2024-03-17T12:39:19;2.00;;;1.90;;
50126;SDS011;36024;47.974;16.398;2024-03-17T12:41:45;3.80;;;3.27;;
50126;SDS011;36024;47.974;16.398;2024-03-17T12:44:21;4.63;;;4.23;;
50126;SDS011;36024;47.974;16.398;2024-03-17T12:46:48;8.10;;;7.27;;
50126;SDS011;36024;47.974;16.398;2024-03-17T12:49:20;5.60;;;5.10;;
50126;SDS011;36024;47.974;16.398;2024-03-17T12:51:47;7.17;;;6.57;;
50126;SDS011;36024;47.974;16.398;2024-03-17T12:54:15;6.93;;;6.07;;
50126;SDS011;36024;47.974;16.398;2024-03-17T12:56:40;6.27;;;5.07;;
50126;SDS011;36024;47.974;16.398;2024-03-17T12:59:26;6.70;;;6.00;;
50126;SDS011;36024;47.974;16.398;2024-03-17T13:02:20;5.00;;;4.50;;
50126;SDS011;36024;47.974;16.398;2024-03-17T13:04:46;11.00;;;9.93;;
50126;SDS011;36024;47.974;16.398;2024-03-17T13:07:12;2.13;;;1.93;;
50126;SDS011;36024;47.974;16.398;2024-03-17T13:09:38;2.80;;;2.50;;
50126;SDS011;36024;47.974;16.398;2024-03-17T13:12:22;3.63;;;2.90;;
50126;SDS011;36024;47.974;16.398;2024-03-17T13:14:48;8.50;;;7.70;;
50126;SDS011;36024;47.974;16.398;2024-03-17T13:17:14;3.77;;;3.33;;
50126;SDS011;36024;47.974;16.398;2024-03-17T13:19:47;4.47;;;2.73;;
50126;SDS011;36024;47.974;16.398;2024-03-17T13:22:13;5.53;;;4.50;;
50126;SDS011;36024;47.974;16.398;2024-03-17T13:24:41;2.63;;;2.20;;
50126;SDS011;36024;47.974;16.398;2024-03-17T13:27:07;2.40;;;1.80;;
50126;SDS011;36024;47.974;16.398;2024-03-17T13:29:37;2.50;;;1.83;;
50126;SDS011;36024;47.974;16.398;2024-03-17T13:32:04;2.40;;;1.37;;
50126;SDS011;36024;47.974;16.398;2024-03-17T13:34:30;1.83;;;1.50;;
50126;SDS011;36024;47.974;16.398;2024-03-17T13:36:56;2.80;;;1.40;;
50126;SDS011;36024;47.974;16.398;2024-03-17T13:39:22;1.97;;;1.43;;
50126;SDS011;36024;47.974;16.398;2024-03-17T13:41:55;1.60;;;1.50;;
50126;SDS011;36024;47.974;16.398;2024-03-17T13:44:23;1.60;;;1.30;;
50126;SDS011;36024;47.974;16.398;2024-03-17T13:46:51;2.37;;;1.40;;
50126;SDS011;36024;47.974;16.398;2024-03-17T13:49:17;1.83;;;1.50;;
50126;SDS011;36024;47.974;16.398;2024-03-17T13:51:43;1.63;;;1.20;;
50126;SDS011;36024;47.974;16.398;2024-03-17T13:54:09;1.40;;;1.30;;
50126;SDS011;36024;47.974;16.398;2024-03-17T13:56:35;2.07;;;1.43;;
50126;SDS011;36024;47.974;16.398;2024-03-17T13:59:01;1.70;;;1.60;;
50126;SDS011;36024;47.974;16.398;2024-03-17T14:01:27;1.57;;;1.30;;
50126;SDS011;36024;47.974;16.398;2024-03-17T14:03:53;1.33;;;1.20;;
50126;SDS011;36024;47.974;16.398;2024-03-17T14:06:20;3.27;;;1.43;;
50126;SDS011;36024;47.974;16.398;2024-03-17T14:08:46;1.70;;;1.20;;
50126;SDS011;36024;47.974;16.398;2024-03-17T14:11:12;1.40;;;1.30;;
50126;SDS011;36024;47.974;16.398;2024-03-17T14:13:38;2.27;;;1.40;;
50126;SDS011;36024;47.974;16.398;2024-03-17T14:16:05;2.23;;;1.50;;
50126;SDS011;36024;47.974;16.398;2024-03-17T14:18:31;3.47;;;1.70;;
50126;SDS011;36024;47.974;16.398;2024-03-17T14:20:58;1.53;;;1.33;;
50126;SDS011;36024;47.974;16.398;2024-03-17T14:23:24;1.30;;;1.20;;
50126;SDS011;36024;47.974;16.398;2024-03-17T14:25:50;1.87;;;1.40;;
50126;SDS011;36024;47.974;16.398;2024-03-17T14:28:16;2.93;;;1.40;;
50126;SDS011;36024;47.974;16.398;2024-03-17T14:30:45;2.13;;;1.43;;
50126;SDS011;36024;47.974;16.398;2024-03-17T14:33:11;2.00;;;1.40;;
50126;SDS011;36024;47.974;16.398;2024-03-17T14:35:37;1.77;;;1.27;;
50126;SDS011;36024;47.974;16.398;2024-03-17T14:38:04;2.83;;;1.60;;
50126;SDS011;36024;47.974;16.398;2024-03-17T14:40:30;4.67;;;3.67;;
50126;SDS011;36024;47.974;16.398;2024-03-17T14:42:56;6.27;;;5.13;;
50126;SDS011;36024;47.974;16.398;2024-03-17T14:45:22;3.47;;;1.83;;
50126;SDS011;36024;47.974;16.398;2024-03-17T14:47:51;2.83;;;1.63;;
50126;SDS011;36024;47.974;16.398;2024-03-17T14:50:17;2.90;;;1.60;;
50126;SDS011;36024;47.974;16.398;2024-03-17T14:52:44;1.63;;;1.53;;
50126;SDS011;36024;47.974;16.398;2024-03-17T14:55:10;1.60;;;1.50;;
50126;SDS011;36024;47.974;16.398;2024-03-17T14:57:39;2.93;;;1.70;;
50126;SDS011;36024;47.974;16.398;2024-03-17T15:00:06;2.53;;;1.37;;
50126;SDS011;36024;47.974;16.398;2024-03-17T15:02:39;3.13;;;1.47;;
50126;SDS011;36024;47.974;16.398;2024-03-17T15:05:07;2.03;;;1.30;;
50126;SDS011;36024;47.974;16.398;2024-03-17T15:07:33;2.17;;;1.40;;